createdAt,value
2019-04-27T00:01:23.437Z,95208.27
2019-04-27T00:04:25.180Z,95210.92
2019-04-27T00:06:58.685Z,95203.15
2019-04-27T00:09:50.078Z,95195.09
2019-04-27T00:12:16.517Z,95192.66
2019-04-27T00:14:44.328Z,95189.59
2019-04-27T00:17:45.920Z,95189.77
2019-04-27T00:20:25.702Z,95191.77
2019-04-27T00:22:58.268Z,95183.80
2019-04-27T00:25:27.947Z,95191.56
2019-04-27T00:27:57.379Z,95192.17
2019-04-27T00:30:26.798Z,95186.20
2019-04-27T00:32:56.231Z,95181.33
2019-04-27T00:35:31.651Z,95179.38
2019-04-27T00:38:23.348Z,95181.78
2019-04-27T00:40:57.847Z,95182.98
2019-04-27T00:43:27.258Z,95177.83
2019-04-27T00:45:56.679Z,95183.27
2019-04-27T00:48:26.150Z,95179.49
2019-04-27T00:50:55.556Z,95181.89
2019-04-27T00:53:24.982Z,95181.51
2019-04-27T00:56:23.627Z,95180.97
2019-04-27T00:59:17.977Z,95187.36
2019-04-27T01:02:09.252Z,95186.20
2019-04-27T01:04:38.755Z,95184.96
2019-04-27T01:07:08.826Z,95185.60
2019-04-27T01:09:38.265Z,95185.84
2019-04-27T01:12:08.567Z,95183.97
2019-04-27T01:14:37.970Z,95174.19
2019-04-27T01:17:08.856Z,95173.84
2019-04-27T01:19:39.256Z,95174.41
2019-04-27T01:22:08.813Z,95165.34
2019-04-27T01:24:39.115Z,95163.42
2019-04-27T01:27:20.850Z,95165.12
2019-04-27T01:29:50.306Z,95161.55
2019-04-27T01:32:20.731Z,95157.46
2019-04-27T01:34:50.334Z,95157.46
2019-04-27T01:37:21.196Z,95159.75
2019-04-27T01:39:50.686Z,95156.33
2019-04-27T01:42:20.309Z,95155.91
2019-04-27T01:44:51.081Z,95154.31
2019-04-27T01:47:20.616Z,95152.48
2019-04-27T01:49:50.041Z,95149.69
2019-04-27T01:52:19.539Z,95148.67
2019-04-27T01:54:49.555Z,95154.10
2019-04-27T01:57:19.516Z,95147.97
2019-04-27T01:59:49.095Z,95144.89
2019-04-27T02:02:42.882Z,95142.52
2019-04-27T02:05:36.958Z,95146.23
2019-04-27T02:08:06.380Z,95140.25
2019-04-27T02:10:35.849Z,95137.50
2019-04-27T02:13:05.262Z,95139.83
2019-04-27T02:15:34.685Z,95141.03
2019-04-27T02:18:04.384Z,95138.64
2019-04-27T02:20:33.811Z,95139.56
2019-04-27T02:23:03.210Z,95136.27
2019-04-27T02:25:32.688Z,95135.88
2019-04-27T02:28:09.230Z,95138.17
2019-04-27T02:30:56.044Z,95132.53
2019-04-27T02:33:41.419Z,95131.23
2019-04-27T02:36:14.794Z,95133.27
2019-04-27T02:38:41.992Z,95138.17
2019-04-27T02:41:11.428Z,95135.99
2019-04-27T02:44:01.812Z,95139.42
2019-04-27T02:46:31.492Z,95149.38
2019-04-27T02:49:06.322Z,95138.75
2019-04-27T02:51:59.314Z,95132.11
2019-04-27T02:54:29.858Z,95128.41
2019-04-27T02:56:59.602Z,95124.13
2019-04-27T02:59:30.334Z,95117.88
2019-04-27T03:02:36.674Z,95120.71
2019-04-27T03:05:06.838Z,95116.82
2019-04-27T03:07:36.280Z,95104.26
2019-04-27T03:10:06.523Z,95112.12
2019-04-27T03:12:42.463Z,95115.13
2019-04-27T03:15:23.435Z,95115.83
2019-04-27T03:18:04.151Z,95117.22
2019-04-27T03:20:52.419Z,95121.52
2019-04-27T03:23:21.920Z,95115.87
2019-04-27T03:26:05.563Z,95109.76
2019-04-27T03:28:35.042Z,95107.49
2019-04-27T03:31:04.474Z,95101.70
2019-04-27T03:33:33.884Z,95099.59
2019-04-27T03:36:03.447Z,95097.09
2019-04-27T03:38:32.911Z,95100.13
2019-04-27T03:41:02.311Z,95098.03
2019-04-27T03:43:31.740Z,95100.32
2019-04-27T03:46:01.143Z,95104.09
2019-04-27T03:48:30.553Z,95103.60
2019-04-27T03:51:23.923Z,95098.80
2019-04-27T03:54:24.426Z,95098.05
2019-04-27T03:56:59.120Z,95093.43
2019-04-27T03:59:53.570Z,95096.42
2019-04-27T04:02:22.983Z,95096.99
2019-04-27T04:04:52.389Z,95090.08
2019-04-27T04:07:21.827Z,95098.59
2019-04-27T04:09:51.251Z,95097.19
2019-04-27T04:12:32.426Z,95100.63
2019-04-27T04:15:01.848Z,95104.21
2019-04-27T04:17:31.304Z,95102.91
2019-04-27T04:20:02.147Z,95099.47
2019-04-27T04:22:32.209Z,95099.13
2019-04-27T04:25:01.641Z,95097.77
2019-04-27T04:27:31.059Z,95095.55
2019-04-27T04:30:00.471Z,95107.09
2019-04-27T04:32:30.028Z,95097.70
2019-04-27T04:35:33.563Z,95093.37
2019-04-27T04:38:02.938Z,95092.41
2019-04-27T04:40:44.136Z,95091.34
2019-04-27T04:43:30.157Z,95093.67
2019-04-27T04:46:19.510Z,95087.03
2019-04-27T04:48:50.188Z,95093.50
2019-04-27T04:51:20.133Z,95091.81
2019-04-27T04:53:51.923Z,95089.23
2019-04-27T04:56:20.817Z,95089.80
2019-04-27T04:58:50.225Z,95093.33
2019-04-27T05:01:19.790Z,95090.64
2019-04-27T05:03:49.144Z,95086.72
2019-04-27T05:06:19.063Z,95090.47
2019-04-27T05:08:49.376Z,95085.63
2019-04-27T05:11:19.586Z,95088.06
2019-04-27T05:13:49.464Z,95095.22
2019-04-27T05:16:19.070Z,95089.00
2019-04-27T05:18:49.513Z,95080.61
2019-04-27T05:21:38.926Z,95085.45
2019-04-27T05:24:09.373Z,95089.06
2019-04-27T05:26:39.744Z,95083.63
2019-04-27T05:29:09.320Z,95084.75
2019-04-27T05:31:38.965Z,95087.78
2019-04-27T05:34:09.520Z,95083.94
2019-04-27T05:36:43.543Z,95084.22
2019-04-27T05:39:13.143Z,95084.28
2019-04-27T05:41:41.792Z,95088.53
2019-04-27T05:44:45.498Z,95083.63
2019-04-27T05:47:19.115Z,95076.98
2019-04-27T05:49:53.386Z,95077.23
2019-04-27T05:52:29.779Z,95080.48
2019-04-27T05:54:59.456Z,95078.11
2019-04-27T05:57:31.509Z,95074.58
2019-04-27T06:00:02.307Z,95077.80
2019-04-27T06:02:31.392Z,95086.44
2019-04-27T06:05:00.818Z,95082.41
2019-04-27T06:07:30.219Z,95080.79
2019-04-27T06:10:00.030Z,95074.83
2019-04-27T06:12:29.887Z,95075.11
2019-04-27T06:15:00.173Z,95072.73
2019-04-27T06:17:30.154Z,95074.08
2019-04-27T06:20:00.089Z,95069.28
2019-04-27T06:22:29.596Z,95073.62
2019-04-27T06:25:00.198Z,95070.41
2019-04-27T06:27:30.512Z,95064.50
2019-04-27T06:30:00.408Z,95062.81
2019-04-27T06:32:29.890Z,95061.75
2019-04-27T06:34:59.408Z,95056.63
2019-04-27T06:37:29.318Z,95058.45
2019-04-27T06:39:59.667Z,95051.27
2019-04-27T06:42:29.904Z,95057.20
2019-04-27T06:45:00.059Z,95059.82
2019-04-27T06:47:29.716Z,95056.98
2019-04-27T06:49:59.230Z,95053.17
2019-04-27T06:52:29.309Z,95058.33
2019-04-27T06:55:00.557Z,95057.64
2019-04-27T06:57:30.130Z,95060.33
2019-04-27T06:59:59.542Z,95058.80
2019-04-27T07:02:29.255Z,95054.83
2019-04-27T07:04:59.184Z,95055.05
2019-04-27T07:07:29.447Z,95047.28
2019-04-27T07:09:59.311Z,95046.69
2019-04-27T07:12:29.030Z,95044.38
2019-04-27T07:14:59.215Z,95046.06
2019-04-27T07:17:29.053Z,95041.03
2019-04-27T07:19:59.511Z,95043.72
2019-04-27T07:22:29.884Z,95038.38
2019-04-27T07:24:59.464Z,95044.31
2019-04-27T07:27:29.250Z,95040.66
2019-04-27T07:30:00.818Z,95045.50
2019-04-27T07:32:29.868Z,95041.63
2019-04-27T07:34:59.273Z,95037.88
2019-04-27T07:37:29.421Z,95041.09
2019-04-27T07:39:59.238Z,95033.33
2019-04-27T07:42:30.211Z,95034.67
2019-04-27T07:45:14.508Z,95031.70
2019-04-27T07:47:45.278Z,95034.13
2019-04-27T07:50:14.721Z,95021.91
2019-04-27T07:52:44.137Z,95028.95
2019-04-27T07:55:13.572Z,95029.55
2019-04-27T07:57:42.992Z,95026.39
2019-04-27T08:00:12.414Z,95030.11
2019-04-27T08:02:41.835Z,95026.67
2019-04-27T08:05:11.274Z,95014.31
2019-04-27T08:07:40.692Z,95021.11
2019-04-27T08:10:10.131Z,95020.77
2019-04-27T08:12:39.549Z,95008.16
2019-04-27T08:15:09.076Z,95007.41
2019-04-27T08:17:42.416Z,95003.97
2019-04-27T08:20:09.771Z,95006.41
2019-04-27T08:22:39.167Z,95006.81
2019-04-27T08:25:09.428Z,95003.91
2019-04-27T08:27:51.599Z,94996.39
2019-04-27T08:30:48.937Z,94991.38
2019-04-27T08:33:19.061Z,94988.50
2019-04-27T08:35:49.054Z,94991.02
2019-04-27T08:38:18.986Z,94990.42
2019-04-27T08:40:49.666Z,94990.62
2019-04-27T08:43:19.224Z,94988.69
2019-04-27T08:45:48.919Z,94986.00
2019-04-27T08:48:33.426Z,94982.25
2019-04-27T08:50:49.506Z,94979.88
2019-04-27T08:53:18.923Z,94969.70
2019-04-27T08:55:49.629Z,94970.70
2019-04-27T08:58:21.251Z,94970.39
2019-04-27T09:00:50.713Z,94964.19
2019-04-27T09:03:20.173Z,94958.97
2019-04-27T09:05:49.599Z,94953.98
2019-04-27T09:08:36.673Z,94950.09
2019-04-27T09:11:26.735Z,94956.00
2019-04-27T09:14:12.218Z,94945.39
2019-04-27T09:17:00.084Z,94946.73
2019-04-27T09:19:36.007Z,94941.17
2019-04-27T09:22:13.437Z,94935.59
2019-04-27T09:24:39.470Z,94930.72
2019-04-27T09:27:09.577Z,94923.92
2019-04-27T09:29:39.638Z,94917.55
2019-04-27T09:32:09.138Z,94913.09
2019-04-27T09:34:36.814Z,94917.87
2019-04-27T09:37:06.500Z,94909.61
2019-04-27T09:39:35.979Z,94909.35
2019-04-27T09:42:06.482Z,94898.42
2019-04-27T09:44:37.109Z,94898.95
2019-04-27T09:47:06.712Z,94894.92
2019-04-27T09:49:36.827Z,94885.78
2019-04-27T09:52:07.254Z,94881.75
2019-04-27T09:54:36.778Z,94870.70
2019-04-27T09:57:06.968Z,94874.17
2019-04-27T09:59:39.342Z,94875.27
2019-04-27T10:02:08.635Z,94865.81
2019-04-27T10:04:38.133Z,94865.06
2019-04-27T10:07:07.604Z,94855.95
2019-04-27T10:09:37.024Z,94853.19
2019-04-27T10:12:07.412Z,94848.95
2019-04-27T10:14:37.012Z,94846.53
2019-04-27T10:17:06.405Z,94843.39
2019-04-27T10:19:36.601Z,94832.65
2019-04-27T10:22:06.270Z,94822.25
2019-04-27T10:24:35.916Z,94819.70
2019-04-27T10:27:07.757Z,94810.17
2019-04-27T10:29:36.829Z,94798.81
2019-04-27T10:32:06.487Z,94804.72
2019-04-27T10:34:35.994Z,94799.88
2019-04-27T10:37:06.034Z,94799.94
2019-04-27T10:39:36.075Z,94797.73
2019-04-27T10:42:06.747Z,94796.80
2019-04-27T10:44:36.358Z,94800.16
2019-04-27T10:47:06.035Z,94786.29
2019-04-27T10:49:35.462Z,94778.16
2019-04-27T10:52:05.869Z,94774.91
2019-04-27T10:54:35.555Z,94766.88
2019-04-27T10:57:06.101Z,94758.55
2019-04-27T10:59:36.070Z,94753.04
2019-04-27T11:02:05.624Z,94749.44
2019-04-27T11:05:02.692Z,94752.45
2019-04-27T11:07:37.312Z,94751.84
2019-04-27T11:10:07.681Z,94747.09
2019-04-27T11:12:37.202Z,94744.41
2019-04-27T11:15:07.974Z,94740.38
2019-04-27T11:17:37.420Z,94737.36
2019-04-27T11:20:07.356Z,94726.87
2019-04-27T11:22:36.832Z,94725.36
2019-04-27T11:25:06.674Z,94723.73
2019-04-27T11:27:36.085Z,94720.75
2019-04-27T11:30:06.769Z,94714.88
2019-04-27T11:32:36.229Z,94713.86
2019-04-27T11:35:25.791Z,94712.19
2019-04-27T11:37:55.764Z,94705.80
2019-04-27T11:40:25.321Z,94695.83
2019-04-27T11:42:57.068Z,94694.53
2019-04-27T11:45:26.440Z,94689.88
2019-04-27T11:47:57.222Z,94681.91
2019-04-27T11:50:26.660Z,94682.94
2019-04-27T11:52:56.671Z,94680.48
2019-04-27T11:55:27.330Z,94688.63
2019-04-27T11:57:57.085Z,94689.65
2019-04-27T12:00:27.694Z,94699.37
2019-04-27T12:02:57.171Z,94699.58
2019-04-27T12:05:26.612Z,94717.35
2019-04-27T12:07:56.215Z,94722.19
2019-04-27T12:10:26.287Z,94722.54
2019-04-27T12:12:56.366Z,94725.41
2019-04-27T12:15:26.348Z,94722.28
2019-04-27T12:17:56.299Z,94715.12
2019-04-27T12:20:25.817Z,94715.92
2019-04-27T12:22:55.170Z,94713.23
2019-04-27T12:25:24.589Z,94712.54
2019-04-27T12:28:15.640Z,94718.61
2019-04-27T12:31:19.164Z,94731.24
2019-04-27T12:33:48.588Z,94741.27
2019-04-27T12:36:18.009Z,94754.11
2019-04-27T12:38:47.447Z,94749.02
2019-04-27T12:41:16.892Z,94756.36
2019-04-27T12:43:46.290Z,94743.95
2019-04-27T12:46:16.167Z,94764.05
2019-04-27T12:48:46.013Z,94793.91
2019-04-27T12:51:15.524Z,94819.14
2019-04-27T12:53:52.907Z,94832.09
2019-04-27T12:56:45.796Z,94836.75
2019-04-27T12:59:36.476Z,94839.38
2019-04-27T13:02:06.281Z,94814.85
2019-04-27T13:04:36.455Z,94794.44
2019-04-27T13:07:06.824Z,94797.28
2019-04-27T13:09:36.260Z,94799.66
2019-04-27T13:12:05.753Z,94794.87
2019-04-27T13:14:36.518Z,94770.75
2019-04-27T13:17:06.319Z,94759.44
2019-04-27T13:19:36.586Z,94744.97
2019-04-27T13:22:06.262Z,94735.27
2019-04-27T13:24:35.811Z,94743.19
2019-04-27T13:27:06.461Z,94750.81
2019-04-27T13:29:35.990Z,94752.91
2019-04-27T13:32:06.048Z,94758.72
2019-04-27T13:34:36.378Z,94740.30
2019-04-27T13:37:26.254Z,94745.45
2019-04-27T13:40:06.079Z,94747.17
2019-04-27T13:42:28.844Z,94743.91
2019-04-27T13:44:59.916Z,94752.72
2019-04-27T13:47:38.660Z,94731.06
2019-04-27T13:50:18.834Z,94715.69
2019-04-27T13:52:48.266Z,94726.66
2019-04-27T13:55:17.687Z,94737.08
2019-04-27T13:57:50.388Z,94736.89
2019-04-27T14:00:18.241Z,94735.99
2019-04-27T14:02:47.683Z,94734.34
2019-04-27T14:05:17.124Z,94747.91
2019-04-27T14:07:46.554Z,94747.20
2019-04-27T14:10:17.968Z,94739.53
2019-04-27T14:12:48.872Z,94740.17
2019-04-27T14:15:18.751Z,94727.37
2019-04-27T14:17:49.946Z,94735.83
2019-04-27T14:20:19.440Z,94740.88
2019-04-27T14:22:49.132Z,94744.23
2019-04-27T14:25:18.558Z,94734.20
2019-04-27T14:27:48.885Z,94737.27
2019-04-27T14:30:19.177Z,94738.42
2019-04-27T14:32:48.859Z,94748.77
2019-04-27T14:35:18.502Z,94754.05
2019-04-27T14:37:50.128Z,94757.66
2019-04-27T14:40:19.121Z,94766.92
2019-04-27T14:42:50.277Z,94780.00
2019-04-27T14:45:19.784Z,94801.16
2019-04-27T14:47:49.193Z,94788.31
2019-04-27T14:50:18.846Z,94792.61
2019-04-27T14:52:48.728Z,94802.77
2019-04-27T14:55:18.131Z,94825.91
2019-04-27T14:57:49.482Z,94849.69
2019-04-27T15:00:20.652Z,94874.52
2019-04-27T15:02:50.073Z,94891.38
2019-04-27T15:05:19.565Z,94915.31
2019-04-27T15:07:48.985Z,94928.14
2019-04-27T15:10:18.585Z,94935.05
2019-04-27T15:12:48.024Z,94943.62
2019-04-27T15:15:17.440Z,94947.39
2019-04-27T15:17:46.868Z,94964.28
2019-04-27T15:20:27.226Z,94946.36
2019-04-27T15:23:03.796Z,94962.27
2019-04-27T15:25:42.480Z,94959.00
2019-04-27T15:28:07.530Z,94965.34
2019-04-27T15:31:02.170Z,94976.20
2019-04-27T15:33:51.427Z,94971.28
2019-04-27T15:36:40.430Z,94977.94
2019-04-27T15:39:16.274Z,94969.17
2019-04-27T15:41:50.912Z,94987.21
2019-04-27T15:44:20.354Z,94974.27
2019-04-27T15:46:49.780Z,94985.53
2019-04-27T15:49:19.200Z,94993.58
2019-04-27T15:51:50.618Z,94994.04
2019-04-27T15:54:22.306Z,94981.50
2019-04-27T15:56:50.913Z,94993.39
2019-04-27T15:59:22.079Z,95000.16
2019-04-27T16:01:51.503Z,94994.86
2019-04-27T16:04:20.937Z,95002.44
2019-04-27T16:06:50.349Z,95006.06
2019-04-27T16:09:24.258Z,94998.52
2019-04-27T16:11:57.866Z,94994.23
2019-04-27T16:14:22.465Z,94991.49
2019-04-27T16:16:51.900Z,94991.14
2019-04-27T16:19:21.296Z,94991.14
2019-04-27T16:21:54.254Z,94981.25
2019-04-27T16:24:21.991Z,94990.65
2019-04-27T16:26:55.901Z,94988.69
2019-04-27T16:29:27.068Z,94982.56
2019-04-27T16:31:54.017Z,94982.89
2019-04-27T16:34:23.424Z,94975.55
2019-04-27T16:36:52.924Z,94971.95
2019-04-27T16:39:22.350Z,94970.70
2019-04-27T16:41:51.790Z,94954.79
2019-04-27T16:44:21.210Z,94936.34
2019-04-27T16:46:50.623Z,94911.05
2019-04-27T16:49:20.050Z,94877.89
2019-04-27T16:51:49.470Z,94839.08
2019-04-27T16:54:21.434Z,94817.55
2019-04-27T16:56:58.133Z,94823.87
2019-04-27T16:59:39.234Z,94852.59
2019-04-27T17:01:52.431Z,94869.51
2019-04-27T17:04:21.848Z,94887.27
2019-04-27T17:06:51.265Z,94887.06
2019-04-27T17:09:20.690Z,94887.13
2019-04-27T17:11:51.791Z,94872.88
2019-04-27T17:14:34.819Z,94873.64
2019-04-27T17:17:12.059Z,94857.64
2019-04-27T17:19:53.858Z,94846.59
2019-04-27T17:22:23.303Z,94846.14
2019-04-27T17:24:52.928Z,94832.98
2019-04-27T17:27:31.773Z,94834.77
2019-04-27T17:30:01.699Z,94834.23
2019-04-27T17:32:39.004Z,94829.62
2019-04-27T17:35:11.740Z,94833.75
2019-04-27T17:37:39.681Z,94826.02
2019-04-27T17:40:09.531Z,94836.64
2019-04-27T17:42:38.971Z,94841.77
2019-04-27T17:45:08.993Z,94828.16
2019-04-27T17:47:38.950Z,94834.13
2019-04-27T17:50:09.274Z,94828.76
2019-04-27T17:52:39.794Z,94828.26
2019-04-27T17:55:09.296Z,94844.02
2019-04-27T17:57:39.121Z,94849.11
2019-04-27T18:00:09.663Z,94858.30
2019-04-27T18:02:42.386Z,94862.70
2019-04-27T18:05:13.712Z,94861.19
2019-04-27T18:07:44.180Z,94865.80
2019-04-27T18:10:13.375Z,94882.04
2019-04-27T18:12:44.536Z,94891.39
2019-04-27T18:15:16.148Z,94894.94
2019-04-27T18:17:49.931Z,94896.68
2019-04-27T18:20:21.102Z,94918.24
2019-04-27T18:22:54.720Z,94928.98
2019-04-27T18:25:22.423Z,94930.69
2019-04-27T18:28:08.103Z,94934.83
2019-04-27T18:31:01.866Z,94943.20
2019-04-27T18:33:32.626Z,94950.86
2019-04-27T18:36:07.168Z,94940.13
2019-04-27T18:38:35.336Z,94941.02
2019-04-27T18:41:09.194Z,94937.46
2019-04-27T18:43:38.445Z,94940.28
2019-04-27T18:46:09.060Z,94941.04
2019-04-27T18:48:58.454Z,94943.78
2019-04-27T18:51:40.064Z,94939.36
2019-04-27T18:54:09.478Z,94948.22
2019-04-27T18:56:41.602Z,94953.54
2019-04-27T18:59:10.043Z,94957.88
2019-04-27T19:01:39.463Z,94959.27
2019-04-27T19:04:08.892Z,94961.50
2019-04-27T19:06:39.097Z,94952.25
2019-04-27T19:09:08.605Z,94956.53
2019-04-27T19:11:38.451Z,94961.77
2019-04-27T19:14:08.426Z,94953.59
2019-04-27T19:16:38.489Z,94952.25
2019-04-27T19:19:08.716Z,94953.59
2019-04-27T19:21:39.243Z,94953.79
2019-04-27T19:24:09.054Z,94946.33
2019-04-27T19:27:15.324Z,94940.02
2019-04-27T19:29:39.684Z,94940.16
2019-04-27T19:32:09.091Z,94937.00
2019-04-27T19:34:38.900Z,94940.47
2019-04-27T19:37:08.359Z,94939.23
2019-04-27T19:39:39.365Z,94936.95
2019-04-27T19:42:08.910Z,94941.64
2019-04-27T19:44:38.950Z,94948.69
2019-04-27T19:47:10.305Z,94937.89
2019-04-27T19:49:39.574Z,94938.20
2019-04-27T19:52:09.212Z,94935.56
2019-04-27T19:54:39.843Z,94929.10
2019-04-27T19:57:09.347Z,94917.13
2019-04-27T19:59:49.880Z,94936.34
2019-04-27T20:02:21.061Z,94928.05
2019-04-27T20:04:57.209Z,94929.10
2019-04-27T20:07:28.484Z,94922.86
2019-04-27T20:09:59.375Z,94932.26
2019-04-27T20:12:28.817Z,94923.42
2019-04-27T20:14:58.514Z,94925.23
2019-04-27T20:17:31.144Z,94932.67
2019-04-27T20:20:00.659Z,94933.28
2019-04-27T20:22:30.172Z,94921.16
2019-04-27T20:25:01.545Z,94919.81
2019-04-27T20:27:34.974Z,94913.58
2019-04-27T20:30:03.128Z,94910.08
2019-04-27T20:32:32.864Z,94912.48
2019-04-27T20:35:02.279Z,94913.02
2019-04-27T20:37:31.709Z,94914.92
2019-04-27T20:40:01.865Z,94911.14
2019-04-27T20:42:31.715Z,94909.33
2019-04-27T20:45:02.020Z,94898.26
2019-04-27T20:47:31.989Z,94899.60
2019-04-27T20:50:01.411Z,94898.20
2019-04-27T20:52:36.547Z,94894.23
2019-04-27T20:55:06.229Z,94892.02
2019-04-27T20:57:35.653Z,94896.33
2019-04-27T21:00:05.263Z,94901.63
2019-04-27T21:02:53.518Z,94898.36
2019-04-27T21:05:41.237Z,94889.03
2019-04-27T21:08:11.765Z,94889.78
2019-04-27T21:10:41.415Z,94883.13
2019-04-27T21:13:11.337Z,94888.16
2019-04-27T21:15:41.887Z,94886.81
2019-04-27T21:18:11.635Z,94886.70
2019-04-27T21:20:41.314Z,94874.94
2019-04-27T21:23:12.086Z,94878.65
2019-04-27T21:25:42.043Z,94882.73
2019-04-27T21:28:16.390Z,94884.95
2019-04-27T21:30:43.108Z,94888.91
2019-04-27T21:33:12.540Z,94884.08
2019-04-27T21:35:41.951Z,94886.54
2019-04-27T21:38:11.710Z,94877.15
2019-04-27T21:40:41.202Z,94877.15
2019-04-27T21:43:11.321Z,94882.67
2019-04-27T21:45:42.037Z,94882.73
2019-04-27T21:48:11.491Z,94881.64
2019-04-27T21:50:41.406Z,94883.20
2019-04-27T21:53:17.520Z,94884.83
2019-04-27T21:56:01.376Z,94883.86
2019-04-27T21:58:31.325Z,94882.34
2019-04-27T22:01:12.894Z,94883.20
2019-04-27T22:03:42.171Z,94880.30
2019-04-27T22:06:11.678Z,94886.14
2019-04-27T22:08:41.108Z,94882.34
2019-04-27T22:11:11.755Z,94885.67
2019-04-27T22:13:41.340Z,94888.63
2019-04-27T22:16:12.719Z,94890.97
2019-04-27T22:18:41.894Z,94891.84
2019-04-27T22:21:11.593Z,94890.72
2019-04-27T22:23:50.892Z,94890.05
2019-04-27T22:26:21.323Z,94895.87
2019-04-27T22:28:52.087Z,94888.35
2019-04-27T22:31:21.582Z,94886.23
2019-04-27T22:33:54.423Z,94889.63
2019-04-27T22:36:22.143Z,94886.42
2019-04-27T22:38:52.024Z,94889.57
2019-04-27T22:41:33.788Z,94888.23
2019-04-27T22:44:29.250Z,94889.04
2019-04-27T22:46:58.682Z,94878.31
2019-04-27T22:49:28.085Z,94881.25
2019-04-27T22:51:57.486Z,94888.35
2019-04-27T22:54:26.974Z,94886.17
2019-04-27T22:57:00.775Z,94879.94
2019-04-27T22:59:51.776Z,94867.58
2019-04-27T23:02:29.369Z,94871.39
2019-04-27T23:05:01.941Z,94873.00
2019-04-27T23:07:31.706Z,94870.52
2019-04-27T23:10:01.545Z,94871.08
2019-04-27T23:12:31.735Z,94860.81
2019-04-27T23:15:01.280Z,94860.54
2019-04-27T23:17:58.480Z,94869.92
2019-04-27T23:20:27.917Z,94868.86
2019-04-27T23:22:57.334Z,94859.00
2019-04-27T23:25:26.748Z,94859.00
2019-04-27T23:27:56.168Z,94866.18
2019-04-27T23:30:56.568Z,94872.55
2019-04-27T23:33:26.125Z,94859.67
2019-04-27T23:35:55.579Z,94861.56
2019-04-27T23:38:24.978Z,94863.50
2019-04-27T23:40:54.398Z,94864.84
2019-04-27T23:43:23.836Z,94868.27
2019-04-27T23:45:53.723Z,94860.81
2019-04-27T23:48:25.053Z,94858.73
2019-04-27T23:50:58.473Z,94864.09
2019-04-27T23:53:31.768Z,94857.66
2019-04-27T23:56:01.191Z,94857.27
2019-04-27T23:58:30.609Z,94854.11
